createdAt,value
2023-03-28T00:49:41.810Z,99.90
2023-03-28T02:08:00.665Z,99.90
2023-03-28T02:11:30.080Z,99.90
2023-03-28T02:27:07.780Z,99.90
2023-03-28T03:01:09.615Z,99.90
2023-03-28T03:24:38.591Z,99.90
2023-03-28T03:27:05.357Z,99.90
2023-03-28T03:29:38.480Z,99.90
2023-03-28T03:32:16.051Z,99.90
2023-03-28T03:34:55.009Z,99.90
2023-03-28T03:37:21.832Z,99.90
2023-03-28T03:39:50.383Z,99.90
2023-03-28T03:42:25.886Z,99.90
2023-03-28T03:44:55.780Z,99.90
2023-03-28T03:47:27.229Z,99.90
2023-03-28T03:50:01.975Z,99.90
2023-03-28T03:52:36.114Z,99.90
2023-03-28T03:58:03.176Z,99.90
2023-03-28T04:00:31.125Z,99.90
2023-03-28T04:02:57.767Z,99.90
2023-03-28T04:05:26.873Z,99.90
2023-03-28T04:08:16.076Z,99.90
2023-03-28T04:10:42.774Z,99.90
2023-03-28T04:13:09.650Z,99.90
2023-03-28T04:15:39.084Z,99.90
2023-03-28T04:18:35.241Z,99.90
2023-03-28T04:21:09.014Z,99.90
2023-03-28T04:23:52.282Z,99.90
2023-03-28T04:26:37.045Z,99.90
2023-03-28T04:29:11.574Z,99.90
2023-03-28T04:31:49.062Z,99.90
2023-03-28T04:43:15.423Z,99.90
2023-03-28T04:45:50.896Z,99.90
2023-03-28T04:48:19.371Z,99.90
2023-03-28T04:50:46.882Z,99.90
2023-03-28T04:53:15.497Z,99.90
2023-03-28T04:56:03.135Z,99.90
2023-03-28T04:58:31.749Z,99.90
2023-03-28T05:01:03.460Z,99.90
2023-03-28T05:03:51.843Z,99.90
2023-03-28T05:06:18.833Z,99.90
2023-03-28T05:08:45.548Z,99.90
2023-03-28T05:11:18.808Z,99.90
2023-03-28T05:13:47.184Z,99.90
2023-03-28T05:16:30.373Z,99.90
2023-03-28T05:19:30.940Z,99.90
2023-03-28T05:22:07.334Z,99.90
2023-03-28T05:24:37.036Z,99.90
2023-03-28T05:27:12.697Z,99.90
2023-03-28T05:29:41.902Z,99.90
2023-03-28T05:32:12.503Z,99.90
2023-03-28T05:34:42.476Z,99.90
2023-03-28T05:37:09.759Z,99.90
2023-03-28T05:39:54.776Z,99.90
2023-03-28T05:42:24.058Z,99.90
2023-03-28T05:44:52.208Z,99.90
2023-03-28T05:47:23.669Z,99.90
2023-03-28T05:49:56.419Z,99.90
2023-03-28T05:52:25.720Z,99.90
2023-03-28T05:54:52.569Z,99.90
2023-03-28T05:57:24.594Z,99.90
2023-03-28T05:59:58.678Z,99.90
2023-03-28T06:02:25.959Z,99.90
2023-03-28T06:04:59.422Z,99.90
2023-03-28T06:07:41.374Z,99.90
2023-03-28T06:10:12.820Z,99.90
2023-03-28T06:12:43.189Z,99.90
2023-03-28T06:15:12.263Z,99.90
2023-03-28T06:17:45.397Z,99.90
2023-03-28T06:20:13.298Z,99.90
2023-03-28T06:25:45.847Z,99.90
2023-03-28T06:28:15.544Z,99.90
2023-03-28T06:33:57.891Z,99.90
2023-03-28T06:36:25.263Z,99.90
2023-03-28T06:50:35.442Z,99.90
2023-03-28T06:53:09.730Z,99.90
2023-03-28T06:55:38.927Z,99.90
2023-03-28T06:58:07.337Z,99.90
2023-03-28T07:00:47.444Z,99.90
2023-03-28T07:03:43.136Z,99.90
2023-03-28T07:06:13.396Z,99.90
2023-03-28T07:08:40.383Z,99.90
2023-03-28T07:11:08.762Z,99.90
2023-03-28T07:13:38.247Z,99.90
2023-03-28T07:16:13.999Z,99.90
2023-03-28T07:18:45.094Z,99.90
2023-03-28T07:21:23.086Z,99.90
2023-03-28T07:23:52.222Z,99.90
2023-03-28T07:26:23.710Z,99.90
2023-03-28T07:28:56.924Z,99.90
2023-03-28T07:31:25.026Z,99.90
2023-03-28T07:33:58.644Z,99.90
2023-03-28T07:36:27.341Z,99.90
2023-03-28T07:44:42.201Z,99.90
2023-03-28T07:47:17.510Z,99.90
2023-03-28T07:49:47.790Z,99.90
2023-03-28T07:52:15.744Z,99.90
2023-03-28T07:54:43.202Z,99.90
2023-03-28T07:57:10.013Z,99.90
2023-03-28T07:59:55.416Z,99.90
2023-03-28T08:02:27.519Z,99.90
2023-03-28T08:04:55.125Z,99.90
2023-03-28T08:07:27.693Z,99.90
2023-03-28T08:09:57.048Z,99.90
2023-03-28T08:12:29.776Z,99.90
2023-03-28T08:14:56.829Z,99.90
2023-03-28T08:17:30.263Z,99.90
2023-03-28T08:19:57.880Z,99.90
2023-03-28T08:22:31.816Z,99.90
2023-03-28T08:25:24.912Z,99.90
2023-03-28T08:27:56.809Z,99.90
2023-03-28T08:30:28.179Z,99.90
2023-03-28T08:33:03.806Z,99.90
2023-03-28T08:35:33.537Z,99.90
2023-03-28T08:38:08.583Z,99.90
2023-03-28T08:40:43.606Z,99.90
2023-03-28T08:43:41.142Z,99.90
2023-03-28T08:46:13.192Z,99.90
2023-03-28T08:48:46.076Z,99.90
2023-03-28T08:51:34.628Z,99.90
2023-03-28T08:54:01.365Z,99.90
2023-03-28T08:56:29.640Z,99.90
2023-03-28T08:59:18.646Z,99.90
2023-03-28T09:01:50.134Z,99.90
2023-03-28T09:04:36.743Z,99.90
2023-03-28T09:07:47.122Z,99.90
2023-03-28T09:10:50.607Z,99.90
2023-03-28T09:13:45.736Z,99.90
2023-03-28T09:16:37.103Z,99.90
2023-03-28T09:22:16.353Z,99.90
2023-03-28T09:25:07.485Z,99.90
2023-03-28T09:27:49.077Z,99.90
2023-03-28T09:30:23.310Z,99.90
2023-03-28T09:32:58.766Z,99.90
2023-03-28T09:35:30.922Z,99.90
2023-03-28T09:38:04.138Z,99.90
2023-03-28T09:40:34.605Z,99.90
2023-03-28T09:43:30.748Z,99.90
2023-03-28T09:46:43.607Z,99.90
2023-03-28T09:49:29.980Z,99.90
2023-03-28T09:52:14.150Z,99.90
2023-03-28T09:54:41.578Z,99.90
2023-03-28T09:57:10.801Z,99.90
2023-03-28T09:59:50.833Z,99.90
2023-03-28T10:02:31.986Z,99.90
2023-03-28T10:05:24.702Z,99.90
2023-03-28T10:08:02.302Z,99.90
2023-03-28T10:10:39.127Z,99.90
2023-03-28T10:13:11.172Z,99.90
2023-03-28T10:15:44.610Z,99.90
2023-03-28T10:18:31.328Z,99.90
2023-03-28T10:21:23.750Z,99.90
2023-03-28T10:24:15.584Z,99.90
2023-03-28T10:26:48.337Z,99.90
2023-03-28T10:29:15.730Z,99.90
2023-03-28T10:31:48.449Z,99.50
2023-03-28T10:34:34.286Z,99.90
2023-03-28T10:37:46.333Z,99.90
2023-03-28T10:40:28.967Z,98.40
2023-03-28T10:43:44.129Z,96.60
2023-03-28T10:46:36.817Z,95.90
2023-03-28T10:49:23.379Z,96.10
2023-03-28T10:52:27.595Z,94.90
2023-03-28T10:55:39.993Z,92.50
2023-03-28T10:58:21.361Z,93.80
2023-03-28T11:01:09.246Z,88.40
2023-03-28T11:04:32.751Z,92.20
2023-03-28T11:07:23.641Z,90.90
2023-03-28T11:10:22.753Z,90.30
2023-03-28T11:13:25.261Z,88.30
2023-03-28T11:15:52.330Z,90.60
2023-03-28T11:18:50.439Z,92.50
2023-03-28T11:21:41.438Z,91.10
2023-03-28T11:24:26.792Z,86.60
2023-03-28T11:27:39.176Z,87.80
2023-03-28T11:30:27.375Z,88.00
2023-03-28T11:33:18.629Z,83.90
2023-03-28T11:36:02.349Z,83.20
2023-03-28T11:38:49.340Z,81.30
2023-03-28T11:41:23.543Z,81.00
2023-03-28T11:44:28.085Z,82.50
2023-03-28T11:47:15.568Z,84.80
2023-03-28T11:49:54.060Z,86.80
2023-03-28T11:52:53.759Z,85.30
2023-03-28T11:55:26.224Z,83.00
2023-03-28T11:58:00.943Z,85.80
2023-03-28T12:00:36.948Z,84.40
2023-03-28T12:03:28.447Z,77.90
2023-03-28T12:06:10.971Z,78.70
2023-03-28T12:09:24.123Z,81.90
2023-03-28T12:12:16.602Z,82.40
2023-03-28T12:15:00.544Z,80.60
2023-03-28T12:18:00.715Z,79.30
2023-03-28T12:20:59.817Z,80.80
2023-03-28T12:24:13.048Z,77.50
2023-03-28T12:27:23.099Z,75.80
2023-03-28T12:30:22.238Z,80.00
2023-03-28T12:33:21.989Z,80.60
2023-03-28T12:36:33.358Z,75.70
2023-03-28T12:39:04.161Z,71.40
2023-03-28T12:41:37.780Z,72.70
2023-03-28T12:44:15.045Z,72.30
2023-03-28T12:46:58.164Z,73.50
2023-03-28T12:49:55.715Z,66.80
2023-03-28T12:52:32.446Z,70.20
2023-03-28T12:55:07.146Z,71.60
2023-03-28T12:57:43.133Z,67.40
2023-03-28T13:01:09.698Z,72.30
2023-03-28T13:03:43.829Z,71.00
2023-03-28T13:06:29.744Z,70.10
2023-03-28T13:09:51.046Z,69.60
2023-03-28T13:12:43.462Z,70.10
2023-03-28T13:15:16.579Z,69.00
2023-03-28T13:17:51.629Z,66.40
2023-03-28T13:20:18.422Z,72.20
2023-03-28T13:22:53.899Z,69.80
2023-03-28T13:25:33.025Z,68.90
2023-03-28T13:28:21.626Z,71.40
2023-03-28T13:31:05.081Z,68.50
2023-03-28T13:33:37.471Z,67.60
2023-03-28T13:36:04.253Z,68.60
2023-03-28T13:38:52.546Z,68.30
2023-03-28T13:41:40.122Z,68.40
2023-03-28T13:44:12.570Z,69.20
2023-03-28T13:46:45.680Z,67.60
2023-03-28T13:49:22.662Z,68.30
2023-03-28T13:52:15.737Z,69.00
2023-03-28T13:54:42.727Z,67.70
2023-03-28T13:57:18.060Z,68.00
2023-03-28T14:00:12.862Z,63.70
2023-03-28T14:02:49.963Z,66.10
2023-03-28T14:05:21.072Z,66.40
2023-03-28T14:07:52.161Z,68.10
2023-03-28T14:10:35.248Z,70.40
2023-03-28T14:13:27.341Z,66.10
2023-03-28T14:15:58.775Z,65.80
2023-03-28T14:18:38.656Z,67.00
2023-03-28T14:21:07.015Z,68.70
2023-03-28T14:23:39.232Z,68.90
2023-03-28T14:26:26.322Z,69.80
2023-03-28T14:28:59.930Z,68.70
2023-03-28T14:31:31.628Z,68.00
2023-03-28T14:34:00.071Z,67.10
2023-03-28T14:36:30.142Z,70.20
2023-03-28T14:39:11.208Z,66.60
2023-03-28T14:41:46.743Z,66.70
2023-03-28T14:44:16.630Z,68.00
2023-03-28T14:46:43.371Z,69.00
2023-03-28T14:49:18.904Z,67.90
2023-03-28T14:51:52.712Z,69.60
2023-03-28T14:54:27.989Z,68.80
2023-03-28T14:57:00.241Z,73.90
2023-03-28T14:59:46.705Z,69.90
2023-03-28T15:02:34.478Z,68.30
2023-03-28T15:05:13.596Z,69.30
2023-03-28T15:07:43.807Z,70.70
2023-03-28T15:10:22.642Z,67.40
2023-03-28T15:13:04.129Z,70.60
2023-03-28T15:15:36.173Z,69.50
2023-03-28T15:18:08.163Z,68.70
2023-03-28T15:24:37.143Z,71.20
2023-03-28T15:27:07.800Z,70.00
2023-03-28T15:29:38.337Z,68.40
2023-03-28T15:32:19.576Z,67.70
2023-03-28T15:35:19.770Z,68.60
2023-03-28T15:37:46.608Z,70.10
2023-03-28T15:40:26.160Z,70.70
2023-03-28T15:42:55.595Z,71.30
2023-03-28T15:45:39.973Z,70.40
2023-03-28T15:48:19.200Z,70.00
2023-03-28T15:50:53.133Z,71.00
2023-03-28T15:53:26.761Z,69.50
2023-03-28T15:55:54.586Z,71.50
2023-03-28T15:58:23.630Z,71.70
2023-03-28T16:00:55.952Z,71.60
2023-03-28T16:03:23.198Z,72.70
2023-03-28T16:06:23.174Z,72.10
2023-03-28T16:09:19.966Z,71.00
2023-03-28T16:11:51.616Z,71.80
2023-03-28T16:14:54.672Z,73.00
2023-03-28T16:17:42.584Z,74.90
2023-03-28T16:20:28.213Z,72.40
2023-03-28T16:22:59.246Z,73.20
2023-03-28T16:25:28.998Z,72.90
2023-03-28T16:27:56.056Z,72.00
2023-03-28T16:30:39.662Z,74.60
2023-03-28T16:33:08.846Z,74.30
2023-03-28T16:35:38.919Z,71.90
2023-03-28T16:38:09.464Z,75.00
2023-03-28T16:40:36.283Z,75.10
2023-03-28T16:43:07.255Z,74.10
2023-03-28T16:45:37.896Z,75.10
2023-03-28T16:48:04.824Z,76.00
2023-03-28T16:50:31.940Z,77.20
2023-03-28T16:52:59.056Z,78.00
2023-03-28T16:55:25.736Z,79.10
2023-03-28T16:57:52.367Z,78.10
2023-03-28T17:00:24.176Z,78.60
2023-03-28T17:02:50.962Z,79.50
2023-03-28T17:05:21.338Z,79.50
2023-03-28T17:07:50.469Z,79.00
2023-03-28T17:10:17.250Z,79.80
2023-03-28T17:12:48.167Z,80.30
2023-03-28T17:15:17.705Z,80.50
2023-03-28T17:17:53.204Z,80.10
2023-03-28T17:20:24.206Z,79.70
2023-03-28T17:22:51.156Z,79.30
2023-03-28T17:25:20.360Z,80.40
2023-03-28T17:27:47.244Z,80.00
2023-03-28T17:30:15.271Z,82.80
2023-03-28T17:32:42.618Z,83.30
2023-03-28T17:35:11.914Z,85.20
2023-03-28T17:37:45.061Z,84.50
2023-03-28T17:40:14.886Z,84.50
2023-03-28T17:51:42.455Z,87.20
2023-03-28T17:54:11.538Z,88.50
2023-03-28T17:59:31.290Z,87.70
2023-03-28T18:02:02.314Z,88.30
2023-03-28T18:04:31.418Z,89.10
2023-03-28T18:09:43.985Z,89.80
2023-03-28T18:12:12.004Z,91.70
2023-03-28T18:30:11.167Z,99.50
2023-03-28T18:35:34.769Z,99.90
2023-03-28T18:40:44.130Z,99.90
2023-03-28T18:43:11.299Z,99.90
2023-03-28T18:48:37.026Z,99.90
2023-03-28T18:56:59.477Z,99.90
2023-03-28T18:59:26.876Z,99.90
2023-03-28T19:01:55.939Z,99.90
2023-03-28T19:07:17.309Z,99.90
2023-03-28T19:09:44.426Z,99.90
2023-03-28T19:12:14.614Z,99.90
2023-03-28T19:15:13.029Z,99.90
2023-03-28T19:17:40.987Z,99.90
2023-03-28T19:20:14.884Z,99.90
2023-03-28T19:22:47.526Z,99.90
2023-03-28T19:25:18.589Z,99.90
2023-03-28T19:27:51.437Z,99.90
2023-03-28T19:36:39.704Z,99.90
2023-03-28T19:41:56.477Z,99.90
2023-03-28T19:44:27.069Z,99.90
2023-03-28T19:47:02.773Z,99.90
2023-03-28T19:49:32.676Z,99.90
2023-03-28T19:51:59.511Z,99.90
2023-03-28T19:54:26.740Z,99.90
2023-03-28T19:56:59.732Z,99.90
2023-03-28T19:59:26.797Z,99.90
2023-03-28T20:01:53.433Z,99.90
2023-03-28T20:04:20.224Z,99.90
2023-03-28T20:06:48.746Z,99.90
2023-03-28T20:09:17.935Z,99.90
2023-03-28T20:12:13.913Z,99.90
2023-03-28T20:14:41.992Z,99.90
2023-03-28T20:17:11.218Z,99.90
2023-03-28T20:19:38.310Z,99.90
2023-03-28T20:22:06.764Z,99.90
2023-03-28T20:24:36.630Z,99.90
2023-03-28T20:27:04.262Z,99.90
2023-03-28T20:29:32.200Z,99.90
2023-03-28T20:32:04.175Z,99.90
2023-03-28T20:34:35.218Z,99.90
2023-03-28T20:37:01.840Z,99.90
2023-03-28T20:39:33.321Z,99.90
2023-03-28T20:42:04.796Z,99.90
2023-03-28T20:44:42.291Z,99.90
2023-03-28T20:47:19.678Z,99.90
2023-03-28T20:49:48.154Z,99.90
2023-03-28T20:52:16.108Z,99.90
2023-03-28T20:55:12.734Z,99.90
2023-03-28T20:57:43.844Z,99.90
2023-03-28T21:00:15.543Z,99.90
2023-03-28T21:02:52.794Z,99.90
2023-03-28T21:05:21.678Z,99.90
2023-03-28T21:07:53.492Z,99.90
2023-03-28T21:10:22.453Z,99.90
2023-03-28T21:12:53.267Z,99.90
2023-03-28T21:15:19.983Z,99.90
2023-03-28T21:17:48.719Z,99.90
2023-03-28T21:20:18.174Z,99.90
2023-03-28T21:22:46.482Z,99.90
2023-03-28T21:25:20.288Z,99.90
2023-03-28T21:27:47.118Z,99.90
2023-03-28T21:30:15.949Z,99.90
2023-03-28T21:32:46.925Z,99.90
2023-03-28T21:35:19.374Z,99.90
2023-03-28T21:37:47.319Z,99.90
2023-03-28T21:40:14.116Z,99.90
2023-03-28T21:42:41.284Z,99.90
2023-03-28T21:45:11.018Z,99.90
2023-03-28T21:47:42.003Z,99.90
2023-03-28T21:53:10.355Z,99.90
2023-03-28T21:55:39.245Z,99.90
2023-03-28T21:58:08.046Z,99.90
2023-03-28T22:00:37.707Z,99.90
2023-03-28T22:03:09.535Z,99.90
2023-03-28T22:05:42.852Z,99.90
2023-03-28T22:08:14.122Z,99.90
2023-03-28T22:19:39.476Z,99.90
2023-03-28T22:22:06.238Z,99.90
2023-03-28T22:24:34.033Z,99.90
2023-03-28T22:27:00.780Z,99.90
2023-03-28T22:29:32.542Z,99.90
2023-03-28T22:31:59.746Z,99.90
2023-03-28T22:34:30.788Z,99.90
2023-03-28T22:36:57.956Z,99.90
2023-03-28T22:39:24.608Z,99.90
2023-03-28T22:41:53.269Z,99.90
2023-03-28T22:44:21.919Z,99.90
2023-03-28T22:46:50.464Z,99.90
2023-03-28T22:49:21.462Z,99.90
2023-03-28T22:51:56.376Z,99.90
2023-03-28T22:54:24.182Z,99.90
2023-03-28T22:56:51.052Z,99.90
2023-03-28T22:59:18.197Z,99.90
2023-03-28T23:01:47.808Z,99.90
2023-03-28T23:04:14.580Z,99.90
2023-03-28T23:06:45.080Z,99.90
2023-03-28T23:09:12.546Z,99.90
2023-03-28T23:11:42.039Z,99.90
2023-03-28T23:14:10.923Z,99.90
2023-03-28T23:16:37.711Z,99.90
2023-03-28T23:19:09.466Z,99.90
2023-03-28T23:21:37.605Z,99.90
2023-03-28T23:24:05.882Z,99.90
2023-03-28T23:26:32.645Z,99.90
2023-03-28T23:29:04.518Z,99.90
2023-03-28T23:31:31.605Z,99.90
2023-03-28T23:34:04.558Z,99.90
2023-03-28T23:36:33.669Z,99.90
2023-03-28T23:39:00.952Z,99.90
2023-03-28T23:41:27.712Z,99.90
2023-03-28T23:43:55.548Z,99.90
2023-03-28T23:46:26.165Z,99.90
2023-03-28T23:48:52.954Z,99.90
2023-03-28T23:51:20.015Z,99.90
2023-03-28T23:53:51.593Z,99.90
2023-03-28T23:56:18.326Z,99.90
2023-03-28T23:58:52.472Z,99.90
